Time;durP1;ratioP1;P1;durP2;ratioP2;P2;SDS_P1;SDS_P2;PMS_P1;PMS_P2;Temp;Humidity;BMP_temperature;BMP_pressure;BME280_temperature;BME280_humidity;BME280_pressure;Samples;Min_cycle;Max_cycle;Signal;HPM_P1;HPM_P2
2021/06/03 00:02:15;;;;;;;11.07;7.68;;;19.00;84.10;;;;;;5047105;28;20052;-77
2021/06/03 00:04:41;;;;;;;13.18;8.68;;;18.90;84.40;;;;;;5048480;28;20021;-76
2021/06/03 00:07:09;;;;;;;9.75;8.57;;;18.80;84.90;;;;;;5048147;28;20029;-77
2021/06/03 00:09:35;;;;;;;12.70;9.20;;;18.80;85.00;;;;;;5048419;28;20021;-77
2021/06/03 00:12:01;;;;;;;15.57;8.85;;;18.70;85.20;;;;;;5048293;28;20081;-77
2021/06/03 00:14:27;;;;;;;11.93;9.45;;;18.70;85.50;;;;;;5047090;28;20383;-77
2021/06/03 00:16:52;;;;;;;11.13;8.95;;;18.70;85.80;;;;;;5046783;28;20036;-77
2021/06/03 00:19:18;;;;;;;15.57;9.15;;;18.70;86.00;;;;;;5048348;28;20510;-77
2021/06/03 00:21:44;;;;;;;13.85;9.38;;;18.70;85.90;;;;;;5046859;28;20029;-77
2021/06/03 00:24:11;;;;;;;15.10;9.95;;;18.70;85.90;;;;;;5046723;28;20137;-77
2021/06/03 00:26:37;;;;;;;14.82;8.95;;;18.70;86.30;;;;;;5047930;28;20052;-77
2021/06/03 00:29:04;;;;;;;11.63;9.55;;;18.60;86.60;;;;;;5048151;28;20165;-77
2021/06/03 00:31:31;;;;;;;13.68;8.77;;;18.60;86.60;;;;;;5049622;28;20036;-77
2021/06/03 00:33:56;;;;;;;13.10;9.80;;;18.70;86.60;;;;;;5051320;28;20519;-77
2021/06/03 00:36:22;;;;;;;12.55;9.20;;;18.60;86.70;;;;;;5051569;28;20032;-77
2021/06/03 00:38:48;;;;;;;13.77;10.45;;;18.60;86.90;;;;;;5051287;28;20047;-77
2021/06/03 00:41:14;;;;;;;14.75;10.02;;;18.60;86.90;;;;;;5050204;28;20093;-77
2021/06/03 00:43:41;;;;;;;14.45;9.27;;;18.60;86.90;;;;;;5058972;27;20058;-77
2021/06/03 00:46:07;;;;;;;11.40;9.15;;;18.60;86.90;;;;;;5057415;27;20041;-77
2021/06/03 00:48:34;;;;;;;14.02;10.02;;;18.70;87.00;;;;;;5051442;28;20028;-77
2021/06/03 00:51:04;;;;;;;13.75;9.98;;;18.70;86.80;;;;;;5050115;28;20021;-77
2021/06/03 00:53:30;;;;;;;15.32;9.60;;;18.60;87.10;;;;;;5050080;28;20021;-76
2021/06/03 00:55:57;;;;;;;16.88;10.88;;;18.60;87.60;;;;;;5051077;28;20590;-76
2021/06/03 00:58:24;;;;;;;13.45;9.98;;;18.50;87.80;;;;;;5051146;28;20021;-77
2021/06/03 01:00:53;;;;;;;14.13;9.45;;;18.50;87.70;;;;;;5049988;28;20042;-77
2021/06/03 01:03:20;;;;;;;15.82;9.90;;;18.60;87.80;;;;;;5051172;28;20021;-77
2021/06/03 01:05:58;;;;;;;12.65;9.60;;;18.50;88.20;;;;;;5050860;28;20500;-77
2021/06/03 01:08:28;;;;;;;17.02;11.10;;;18.40;88.50;;;;;;5051352;28;20025;-77
2021/06/03 01:11:15;;;;;;;16.73;10.30;;;18.40;88.70;;;;;;5052099;28;20029;-77
2021/06/03 01:13:49;;;;;;;15.60;10.80;;;18.40;89.10;;;;;;5052338;28;20528;-77
2021/06/03 01:16:16;;;;;;;12.13;9.65;;;18.40;89.20;;;;;;5051873;28;20115;-77
2021/06/03 01:18:43;;;;;;;14.50;10.63;;;18.40;89.10;;;;;;5051911;28;20032;-77
2021/06/03 01:21:13;;;;;;;14.88;10.23;;;18.40;89.00;;;;;;5050809;28;20385;-77
2021/06/03 01:24:15;;;;;;;16.40;11.07;;;18.40;89.10;;;;;;5052036;28;20147;-77
2021/06/03 01:26:42;;;;;;;16.73;10.30;;;18.40;89.30;;;;;;5051951;28;20044;-76
2021/06/03 01:29:09;;;;;;;13.05;9.73;;;18.40;89.60;;;;;;5051376;28;20089;-77
2021/06/03 01:31:35;;;;;;;15.35;10.95;;;18.30;89.90;;;;;;5051080;28;20025;-77
2021/06/03 01:34:01;;;;;;;14.07;10.35;;;18.30;90.00;;;;;;5049602;28;20041;-77
2021/06/03 01:36:28;;;;;;;13.50;10.63;;;18.20;90.20;;;;;;5050925;28;20036;-77
2021/06/03 01:38:55;;;;;;;13.73;10.23;;;18.20;90.30;;;;;;5050849;28;20025;-77
2021/06/03 01:41:21;;;;;;;13.85;10.25;;;18.20;90.40;;;;;;5137467;27;20031;-77
2021/06/03 01:43:48;;;;;;;17.00;11.13;;;18.30;90.40;;;;;;5049543;28;20119;-76
2021/06/03 01:46:14;;;;;;;14.25;11.23;;;18.20;90.50;;;;;;5049161;28;20033;-77
2021/06/03 01:48:42;;;;;;;12.98;10.63;;;18.20;90.60;;;;;;5049405;28;20055;-77
2021/06/03 01:51:12;;;;;;;13.88;9.60;;;18.20;90.70;;;;;;5049429;28;20074;-77
2021/06/03 01:53:39;;;;;;;15.88;10.93;;;18.10;90.80;;;;;;5048984;28;20029;-77
2021/06/03 01:56:08;;;;;;;14.98;9.98;;;18.10;91.00;;;;;;5050325;28;20036;-77
2021/06/03 01:58:34;;;;;;;14.95;10.55;;;18.10;91.00;;;;;;5050351;28;20026;-77
2021/06/03 02:01:00;;;;;;;16.17;10.55;;;18.10;90.90;;;;;;5050364;28;20081;-77
2021/06/03 02:03:26;;;;;;;15.32;10.85;;;18.10;91.00;;;;;;5050140;28;20433;-77
2021/06/03 02:05:53;;;;;;;16.00;11.02;;;18.10;90.90;;;;;;5050046;28;20037;-77
2021/06/03 02:08:19;;;;;;;15.02;10.68;;;18.10;91.10;;;;;;5050169;28;20049;-77
2021/06/03 02:10:46;;;;;;;16.45;11.25;;;18.10;91.10;;;;;;5048932;28;20029;-77
2021/06/03 02:13:25;;;;;;;17.00;10.95;;;18.10;91.20;;;;;;5050006;28;20021;-77
2021/06/03 02:15:58;;;;;;;16.95;11.23;;;18.10;91.20;;;;;;5050206;28;20040;-77
2021/06/03 02:18:36;;;;;;;19.90;10.82;;;18.10;91.30;;;;;;5048782;28;20041;-77
2021/06/03 02:21:04;;;;;;;17.58;11.65;;;18.10;91.20;;;;;;5048711;28;20411;-77
2021/06/03 02:23:30;;;;;;;15.75;10.68;;;18.10;91.20;;;;;;5048523;28;20440;-77
2021/06/03 02:26:01;;;;;;;16.20;11.23;;;18.10;91.30;;;;;;5049758;28;20029;-77
2021/06/03 02:28:28;;;;;;;18.98;11.35;;;18.10;91.40;;;;;;5049981;28;20062;-77
2021/06/03 02:30:58;;;;;;;16.35;11.73;;;18.00;91.50;;;;;;5049959;28;20032;-77
2021/06/03 02:33:24;;;;;;;16.73;12.05;;;18.00;91.60;;;;;;5049643;28;20032;-77
2021/06/03 02:35:50;;;;;;;19.15;11.60;;;18.00;91.70;;;;;;5049559;28;20028;-77
2021/06/03 02:38:22;;;;;;;16.52;10.75;;;18.00;91.80;;;;;;5048484;28;20033;-77
2021/06/03 02:40:50;;;;;;;18.70;13.05;;;18.00;91.90;;;;;;5049869;28;20025;-77
2021/06/03 02:43:15;;;;;;;16.17;11.50;;;18.00;91.80;;;;;;5048484;28;20021;-77
2021/06/03 02:45:41;;;;;;;16.95;11.80;;;18.00;91.90;;;;;;5049379;28;20500;-77
2021/06/03 02:48:07;;;;;;;16.15;11.75;;;18.00;91.80;;;;;;5064262;27;20029;-77
2021/06/03 02:50:33;;;;;;;14.50;11.00;;;18.00;91.80;;;;;;5048271;28;20029;-77
2021/06/03 02:52:59;;;;;;;17.15;11.23;;;18.00;92.00;;;;;;5049364;28;20021;-77
2021/06/03 02:55:25;;;;;;;14.77;11.30;;;18.00;91.90;;;;;;5049090;28;20485;-77
2021/06/03 02:57:51;;;;;;;15.90;12.02;;;18.00;92.10;;;;;;5048025;28;20032;-77
2021/06/03 03:00:23;;;;;;;20.85;12.50;;;17.90;92.10;;;;;;5135291;27;20116;-77
2021/06/03 03:02:49;;;;;;;;;;;18.00;92.10;;;;;;5048360;28;20115;-77
2021/06/03 03:05:15;;;;;;;17.75;12.23;;;18.00;92.20;;;;;;5049302;28;19940;-77
2021/06/03 03:07:41;;;;;;;22.02;12.90;;;17.90;92.30;;;;;;5049343;28;20484;-77
2021/06/03 03:10:10;;;;;;;16.48;12.13;;;17.90;92.40;;;;;;5049166;28;20029;-77
2021/06/03 03:12:36;;;;;;;19.35;12.50;;;17.80;92.50;;;;;;5049109;28;20025;-77
2021/06/03 03:15:05;;;;;;;19.00;13.38;;;17.80;92.60;;;;;;5049138;28;20529;-77
2021/06/03 03:17:30;;;;;;;18.80;13.32;;;17.80;92.60;;;;;;5047743;28;20503;-77
2021/06/03 03:19:56;;;;;;;18.55;13.77;;;17.80;92.80;;;;;;5047823;28;20024;-77
2021/06/03 03:22:22;;;;;;;23.55;13.52;;;17.80;92.90;;;;;;5048971;28;20033;-77
2021/06/03 03:24:48;;;;;;;18.05;11.85;;;17.70;93.10;;;;;;5047767;28;20029;-77
2021/06/03 03:27:13;;;;;;;18.67;13.18;;;17.80;93.10;;;;;;5047406;28;20123;-77
2021/06/03 03:29:39;;;;;;;19.05;12.90;;;17.70;93.10;;;;;;5048819;28;20025;-77
2021/06/03 03:32:06;;;;;;;22.08;13.00;;;17.70;93.10;;;;;;5047801;28;20076;-77
2021/06/03 03:34:32;;;;;;;19.50;13.73;;;17.70;93.30;;;;;;5047349;28;20070;-77
2021/06/03 03:36:57;;;;;;;21.77;13.18;;;17.60;93.30;;;;;;5048779;28;20103;-77
2021/06/03 03:39:23;;;;;;;22.02;13.80;;;17.60;93.40;;;;;;5048859;28;20022;-77
2021/06/03 03:41:49;;;;;;;21.75;13.35;;;17.60;93.40;;;;;;5048751;28;20182;-77
2021/06/03 03:44:15;;;;;;;19.60;12.85;;;17.60;93.50;;;;;;5048666;28;20543;-77
2021/06/03 03:46:41;;;;;;;18.67;13.15;;;17.60;93.50;;;;;;5048613;28;20126;-77
2021/06/03 03:49:06;;;;;;;18.83;12.50;;;17.60;93.50;;;;;;5048415;28;20029;-77
2021/06/03 03:51:32;;;;;;;22.75;12.80;;;17.60;93.60;;;;;;5048595;28;20029;-77
2021/06/03 03:53:58;;;;;;;23.23;14.50;;;17.70;93.60;;;;;;5047260;28;20452;-77
2021/06/03 03:56:24;;;;;;;19.80;13.52;;;17.70;93.50;;;;;;5048486;28;20033;-77
2021/06/03 03:58:50;;;;;;;19.85;13.63;;;17.60;93.60;;;;;;5048559;28;20024;-78
2021/06/03 04:01:16;;;;;;;18.50;13.07;;;17.60;93.70;;;;;;5047083;28;20058;-77
2021/06/03 04:03:42;;;;;;;20.25;13.55;;;17.50;93.80;;;;;;5048411;28;20025;-78
2021/06/03 04:06:08;;;;;;;21.58;13.52;;;17.50;93.90;;;;;;5048431;28;20029;-77
2021/06/03 04:08:34;;;;;;;19.90;13.43;;;17.50;94.00;;;;;;5051575;28;20021;-78
2021/06/03 04:11:00;;;;;;;19.23;13.02;;;17.50;94.00;;;;;;5052615;28;20373;-77
2021/06/03 04:13:27;;;;;;;18.02;12.85;;;17.50;94.10;;;;;;5052993;28;20021;-77
2021/06/03 04:15:54;;;;;;;20.58;14.07;;;17.50;94.10;;;;;;5051100;28;20120;-77
2021/06/03 04:18:20;;;;;;;23.73;13.25;;;17.50;94.20;;;;;;5051112;28;20028;-77
2021/06/03 04:20:47;;;;;;;18.23;13.23;;;17.50;94.20;;;;;;5050894;28;20480;-77
2021/06/03 04:23:16;;;;;;;19.85;13.10;;;17.50;94.30;;;;;;5045203;28;20037;-77
2021/06/03 04:25:42;;;;;;;23.05;14.07;;;17.60;94.30;;;;;;5042254;28;20025;-76
2021/06/03 04:28:08;;;;;;;22.40;14.45;;;17.50;94.30;;;;;;5047563;28;20025;-77
2021/06/03 04:30:34;;;;;;;20.30;13.82;;;17.60;94.30;;;;;;5042727;28;20511;-76
2021/06/03 04:33:00;;;;;;;22.65;14.40;;;17.60;94.40;;;;;;5047810;28;20014;-76
2021/06/03 04:35:26;;;;;;;20.05;14.38;;;17.60;94.40;;;;;;5041800;28;20407;-77
2021/06/03 04:37:53;;;;;;;21.05;14.75;;;17.60;94.50;;;;;;5040993;28;20029;-76
2021/06/03 04:40:22;;;;;;;23.23;15.40;;;17.60;94.50;;;;;;5044353;28;20037;-76
2021/06/03 04:42:49;;;;;;;22.25;14.02;;;17.70;94.40;;;;;;5046065;28;20113;-76
2021/06/03 04:45:22;;;;;;;22.00;13.77;;;17.70;94.50;;;;;;5046316;28;20426;-78
2021/06/03 04:47:51;;;;;;;21.23;14.40;;;17.70;94.60;;;;;;5049956;28;20039;-77
2021/06/03 04:50:20;;;;;;;25.08;13.70;;;17.70;94.70;;;;;;5050561;28;20105;-77
2021/06/03 04:52:50;;;;;;;19.95;13.20;;;17.70;94.70;;;;;;5049152;28;20021;-77
2021/06/03 04:55:18;;;;;;;20.05;14.45;;;17.80;94.70;;;;;;5056038;27;20054;-77
2021/06/03 04:57:45;;;;;;;23.77;14.95;;;17.80;94.90;;;;;;5049936;28;20107;-77
2021/06/03 05:00:14;;;;;;;24.55;14.15;;;17.80;94.60;;;;;;5137829;27;20025;-77
2021/06/03 05:02:40;;;;;;;21.35;14.15;;;17.90;94.60;;;;;;5051164;28;20078;-77
2021/06/03 05:05:07;;;;;;;19.55;13.77;;;17.90;94.60;;;;;;5039841;28;20033;-77
2021/06/03 05:07:33;;;;;;;25.52;14.45;;;18.00;94.50;;;;;;5049206;28;20017;-77
2021/06/03 05:09:59;;;;;;;22.13;13.75;;;18.00;94.30;;;;;;5050421;28;20017;-77
2021/06/03 05:12:25;;;;;;;19.25;13.35;;;18.10;94.30;;;;;;5050482;28;20107;-78
2021/06/03 05:14:51;;;;;;;23.83;14.50;;;18.20;94.20;;;;;;5051062;28;20017;-78
2021/06/03 05:17:16;;;;;;;20.50;13.40;;;18.20;94.20;;;;;;5049552;28;20017;-77
2021/06/03 05:19:42;;;;;;;19.98;13.88;;;18.30;94.30;;;;;;5043435;28;20085;-77
2021/06/03 05:22:08;;;;;;;21.30;14.27;;;18.30;94.30;;;;;;5048128;28;20077;-77
2021/06/03 05:24:34;;;;;;;18.05;12.82;;;18.40;94.10;;;;;;5047861;28;20488;-77
2021/06/03 05:27:00;;;;;;;19.48;13.07;;;18.40;94.20;;;;;;5049052;28;20040;-77
2021/06/03 05:29:26;;;;;;;21.55;13.60;;;18.40;94.20;;;;;;5049405;28;20025;-77
2021/06/03 05:31:52;;;;;;;21.92;13.18;;;18.40;94.30;;;;;;5049427;28;20025;-77
2021/06/03 05:34:19;;;;;;;21.67;12.82;;;18.50;94.20;;;;;;5049247;28;20411;-77
2021/06/03 05:36:45;;;;;;;19.48;12.85;;;18.60;94.00;;;;;;5049727;28;20152;-77
2021/06/03 05:39:11;;;;;;;19.10;13.25;;;18.60;93.90;;;;;;5050678;28;20025;-77
2021/06/03 05:41:38;;;;;;;24.63;13.43;;;18.70;94.00;;;;;;5050496;28;20420;-77
2021/06/03 05:44:08;;;;;;;16.33;12.35;;;18.70;93.80;;;;;;5050186;28;20021;-77
2021/06/03 05:46:35;;;;;;;19.92;12.23;;;18.80;93.90;;;;;;5050516;28;20033;-77
2021/06/03 05:49:01;;;;;;;17.60;12.27;;;18.80;93.80;;;;;;5050369;28;20017;-77
2021/06/03 05:51:27;;;;;;;18.75;11.68;;;18.90;94.00;;;;;;5049818;28;20077;-77
2021/06/03 05:53:53;;;;;;;14.80;10.85;;;19.00;93.80;;;;;;5051385;28;20025;-77
2021/06/03 05:56:19;;;;;;;19.38;11.45;;;19.10;93.50;;;;;;5050197;28;20055;-77
2021/06/03 05:58:45;;;;;;;16.90;11.90;;;19.20;93.50;;;;;;5051685;28;20025;-77
2021/06/03 06:01:11;;;;;;;14.52;10.45;;;19.20;93.80;;;;;;5050761;28;20373;-77
2021/06/03 06:08:47;;;;;;;17.95;10.80;;;19.50;93.60;;;;;;5050305;28;20040;-77
2021/06/03 06:11:13;;;;;;;12.07;9.75;;;19.50;93.90;;;;;;5049031;28;20021;-77
2021/06/03 06:13:38;;;;;;;14.32;10.57;;;19.60;93.40;;;;;;5050078;28;20532;-77
2021/06/03 06:16:04;;;;;;;15.20;9.27;;;19.60;93.40;;;;;;5048622;28;20048;-77
2021/06/03 06:18:30;;;;;;;10.57;8.27;;;19.70;93.10;;;;;;5050057;28;20021;-77
2021/06/03 06:20:56;;;;;;;11.38;7.70;;;19.80;92.30;;;;;;5049784;28;20103;-77
2021/06/03 06:23:22;;;;;;;11.90;8.48;;;19.80;91.30;;;;;;5049853;28;20365;-77
2021/06/03 06:25:47;;;;;;;7.35;6.63;;;19.90;91.20;;;;;;5049695;28;20029;-77
2021/06/03 06:28:15;;;;;;;9.32;7.18;;;19.90;91.30;;;;;;5049529;28;20389;-77
2021/06/03 06:30:42;;;;;;;9.68;7.40;;;20.00;91.40;;;;;;5049497;28;20033;-77
2021/06/03 06:33:08;;;;;;;11.40;7.47;;;20.00;91.80;;;;;;5048173;28;20017;-77
2021/06/03 06:35:34;;;;;;;7.82;6.72;;;20.10;92.80;;;;;;5049399;28;20132;-77
2021/06/03 06:38:03;;;;;;;7.55;6.43;;;20.10;92.80;;;;;;5049654;28;20154;-77
2021/06/03 06:40:30;;;;;;;6.65;4.93;;;20.20;92.80;;;;;;5049704;28;20081;-77
2021/06/03 06:42:56;;;;;;;6.00;4.78;;;20.20;92.20;;;;;;5040391;28;20013;-77
2021/06/03 06:45:27;;;;;;;7.78;4.03;;;20.30;90.40;;;;;;5036533;28;20032;-77
2021/06/03 06:47:53;;;;;;;4.72;4.32;;;20.30;88.90;;;;;;5039093;28;20033;-77
2021/06/03 06:50:20;;;;;;;4.95;4.50;;;20.40;90.10;;;;;;5064125;27;20446;-77
2021/06/03 06:52:46;;;;;;;4.07;3.78;;;20.40;87.70;;;;;;5043189;27;20036;-77
2021/06/03 06:55:12;;;;;;;4.30;3.92;;;20.50;88.30;;;;;;5054985;27;20354;-77
2021/06/03 06:57:38;;;;;;;9.75;4.88;;;20.50;89.10;;;;;;5074387;27;20060;-77
2021/06/03 07:00:07;;;;;;;5.05;4.57;;;20.60;89.60;;;;;;5100607;27;20026;-77
2021/06/03 07:02:33;;;;;;;7.78;4.95;;;20.60;90.10;;;;;;5080822;27;20068;-77
2021/06/03 07:04:58;;;;;;;5.03;4.55;;;20.60;90.20;;;;;;5055973;27;20417;-79
2021/06/03 07:07:24;;;;;;;4.53;4.13;;;20.70;90.60;;;;;;5057162;27;20066;-79
2021/06/03 07:10:10;;;;;;;5.53;4.88;;;20.70;90.10;;;;;;5038572;28;20045;-79
2021/06/03 07:12:37;;;;;;;4.85;4.40;;;20.80;89.40;;;;;;5041260;28;20009;-79
2021/06/03 07:15:05;;;;;;;5.30;4.53;;;20.80;88.40;;;;;;5072470;27;20614;-80
2021/06/03 07:17:30;;;;;;;5.20;4.70;;;20.90;88.40;;;;;;5048556;28;20013;-79
2021/06/03 07:19:56;;;;;;;5.70;5.20;;;20.90;87.90;;;;;;5047849;28;20408;-79
2021/06/03 07:22:22;;;;;;;5.30;4.60;;;20.90;86.60;;;;;;5049178;28;20017;-79
2021/06/03 07:24:48;;;;;;;8.48;5.68;;;21.00;88.20;;;;;;5049903;28;20036;-79
2021/06/03 07:27:14;;;;;;;8.60;5.82;;;21.00;86.70;;;;;;5047691;28;20033;-79
2021/06/03 07:29:41;;;;;;;7.03;5.35;;;21.00;87.70;;;;;;5048196;28;20017;-79
2021/06/03 07:32:10;;;;;;;7.30;5.22;;;21.10;89.00;;;;;;5043892;28;20146;-80
2021/06/03 07:34:36;;;;;;;5.68;5.18;;;21.10;88.70;;;;;;5044954;28;20198;-79
2021/06/03 07:37:02;;;;;;;5.15;4.75;;;21.20;89.20;;;;;;5044651;28;20021;-79
2021/06/03 07:39:28;;;;;;;6.55;5.90;;;21.20;89.20;;;;;;5044464;28;20104;-80
2021/06/03 07:41:54;;;;;;;6.72;6.00;;;21.20;88.00;;;;;;5044356;28;20544;-79
2021/06/03 07:44:20;;;;;;;9.18;7.43;;;21.30;86.40;;;;;;5044573;28;20521;-79
2021/06/03 07:46:46;;;;;;;8.68;7.15;;;21.30;87.50;;;;;;5044185;28;20066;-79
2021/06/03 07:49:15;;;;;;;8.82;6.53;;;21.30;87.30;;;;;;5044458;27;20036;-80
2021/06/03 07:51:42;;;;;;;8.23;7.15;;;21.30;88.10;;;;;;5046110;28;20020;-79
2021/06/03 07:54:08;;;;;;;10.82;7.70;;;21.30;89.90;;;;;;5120675;27;20085;-79
2021/06/03 07:56:35;;;;;;;9.95;6.90;;;21.40;90.40;;;;;;5045220;28;20021;-79
2021/06/03 07:59:01;;;;;;;7.20;6.50;;;21.50;90.50;;;;;;5045576;28;20056;-79
2021/06/03 08:01:27;;;;;;;10.40;9.25;;;21.50;90.10;;;;;;5044208;28;20518;-79
2021/06/03 08:03:53;;;;;;;14.88;9.10;;;21.50;87.50;;;;;;5045832;28;20041;-79
2021/06/03 08:06:19;;;;;;;9.20;7.75;;;21.70;89.90;;;;;;5044101;28;20199;-79
2021/06/03 08:08:45;;;;;;;10.95;8.70;;;21.70;90.30;;;;;;5045871;27;20103;-79
2021/06/03 08:11:10;;;;;;;11.07;9.32;;;21.80;88.70;;;;;;5044644;27;20021;-79
2021/06/03 08:13:36;;;;;;;12.35;8.98;;;21.70;87.40;;;;;;5044404;28;20073;-79
2021/06/03 08:16:03;;;;;;;12.13;9.70;;;21.80;86.50;;;;;;5048622;28;20044;-79
2021/06/03 08:18:29;;;;;;;14.25;9.77;;;21.70;84.60;;;;;;5048678;28;20033;-79
2021/06/03 08:20:57;;;;;;;12.30;8.93;;;21.80;83.50;;;;;;5049385;27;20025;-79
2021/06/03 08:23:26;;;;;;;10.00;8.50;;;21.80;85.70;;;;;;5047803;28;20025;-79
2021/06/03 08:25:53;;;;;;;13.90;10.27;;;21.80;87.10;;;;;;5049096;27;20023;-79
2021/06/03 08:28:19;;;;;;;12.45;9.27;;;21.90;86.30;;;;;;5048966;28;20064;-80
2021/06/03 08:30:46;;;;;;;15.52;10.73;;;22.00;86.20;;;;;;5049311;28;20026;-79
2021/06/03 08:33:12;;;;;;;14.95;10.18;;;22.10;86.20;;;;;;5047002;28;20451;-79
2021/06/03 08:35:38;;;;;;;13.65;10.13;;;22.20;87.10;;;;;;5139930;27;20046;-79
2021/06/03 08:38:07;;;;;;;16.00;11.63;;;22.20;85.90;;;;;;5154146;27;20424;-79
2021/06/03 08:40:39;;;;;;;16.45;11.50;;;22.20;84.40;;;;;;5050237;27;20032;-79
2021/06/03 08:43:05;;;;;;;;;;;22.30;83.00;;;;;;5048954;28;20028;-79
2021/06/03 08:45:33;;;;;;;17.70;11.95;;;22.20;80.80;;;;;;5047106;28;19912;-79
2021/06/03 08:47:59;;;;;;;21.35;11.32;;;22.20;82.30;;;;;;5048978;28;20025;-79
2021/06/03 08:50:28;;;;;;;16.55;12.23;;;22.20;83.10;;;;;;5135150;27;20433;-79
2021/06/03 08:52:55;;;;;;;15.73;12.00;;;22.30;82.90;;;;;;5051031;28;20021;-79
2021/06/03 08:58:24;;;;;;;17.80;12.35;;;22.40;84.20;;;;;;5123530;27;20050;-79
2021/06/03 09:00:50;;;;;;;24.00;13.75;;;22.50;84.00;;;;;;5083120;27;20103;-79
2021/06/03 09:03:17;;;;;;;18.73;12.25;;;22.50;83.50;;;;;;5052337;28;20021;-80
2021/06/03 09:05:44;;;;;;;19.20;12.32;;;22.70;83.70;;;;;;5052326;28;20018;-80
2021/06/03 09:08:18;;;;;;;17.27;12.48;;;22.70;87.30;;;;;;5052363;28;20048;-79
2021/06/03 09:22:56;;;;;;;17.67;12.10;;;22.80;84.80;;;;;;5141492;27;20226;-75
2021/06/03 09:25:34;;;;;;;14.07;11.50;;;23.30;81.80;;;;;;5125513;28;20655;-75
2021/06/03 09:28:20;;;;;;;18.63;12.65;;;23.30;81.00;;;;;;5094149;28;20085;-75
2021/06/03 09:31:01;;;;;;;18.25;12.07;;;23.30;80.50;;;;;;5108516;28;20028;-74
2021/06/03 09:33:47;;;;;;;19.33;12.48;;;23.30;81.50;;;;;;5105552;28;20039;-75
2021/06/03 09:36:31;;;;;;;18.10;11.75;;;23.30;84.50;;;;;;5089402;28;20031;-76
2021/06/03 09:39:05;;;;;;;15.68;11.93;;;23.40;83.10;;;;;;5109809;28;20036;-78
2021/06/03 09:41:31;;;;;;;17.45;10.32;;;23.50;83.30;;;;;;5109983;28;20059;-79
2021/06/03 09:44:05;;;;;;;14.63;11.32;;;23.50;85.80;;;;;;5108529;28;20823;-78
2021/06/03 09:46:36;;;;;;;14.40;11.48;;;23.60;80.70;;;;;;5109299;28;20479;-78
2021/06/03 09:49:03;;;;;;;23.70;10.95;;;23.60;79.60;;;;;;5108786;28;20027;-79
2021/06/03 09:51:31;;;;;;;19.63;11.77;;;23.70;81.00;;;;;;5109423;28;20370;-78
2021/06/03 09:54:06;;;;;;;18.30;11.38;;;23.90;79.50;;;;;;5107812;28;20016;-78
2021/06/03 09:56:35;;;;;;;19.02;12.93;;;23.90;77.90;;;;;;5097951;28;20048;-79
2021/06/03 09:59:04;;;;;;;17.38;11.60;;;23.90;78.20;;;;;;5108968;28;20020;-78
2021/06/03 10:01:48;;;;;;;15.40;11.60;;;23.90;78.90;;;;;;5107494;28;20020;-79
2021/06/03 10:04:39;;;;;;;17.85;12.52;;;24.00;77.00;;;;;;5112368;28;20065;-78
2021/06/03 10:07:15;;;;;;;15.43;11.02;;;24.00;77.70;;;;;;5112946;27;20058;-79
2021/06/03 10:09:44;;;;;;;13.10;10.20;;;24.00;79.10;;;;;;5116622;28;20031;-78
2021/06/03 10:12:24;;;;;;;19.98;13.02;;;24.10;81.80;;;;;;5095823;28;20060;-78
2021/06/03 10:14:53;;;;;;;17.55;10.57;;;24.20;76.90;;;;;;5106762;28;20031;-78
2021/06/03 10:17:28;;;;;;;15.02;10.10;;;24.20;78.40;;;;;;5109105;28;20106;-79
2021/06/03 10:19:59;;;;;;;8.65;7.78;;;24.40;77.40;;;;;;5111464;28;20081;-78
2021/06/03 10:22:33;;;;;;;11.30;8.50;;;24.40;71.30;;;;;;5102079;28;20056;-80
2021/06/03 10:25:05;;;;;;;14.02;9.15;;;24.40;71.20;;;;;;5095730;28;20103;-79
2021/06/03 10:27:36;;;;;;;8.80;7.40;;;24.40;71.70;;;;;;5097475;28;20032;-80
2021/06/03 10:30:10;;;;;;;8.80;6.20;;;24.40;71.90;;;;;;5093300;28;20020;-80
2021/06/03 10:32:36;;;;;;;7.00;6.38;;;24.50;71.20;;;;;;5094594;28;20051;-80
2021/06/03 10:35:05;;;;;;;6.90;6.20;;;24.50;68.70;;;;;;5093993;28;20021;-80
2021/06/03 10:37:32;;;;;;;11.18;5.97;;;24.60;68.50;;;;;;5095514;28;20021;-80
2021/06/03 10:39:58;;;;;;;6.35;5.32;;;24.60;66.80;;;;;;5094419;28;20399;-80
2021/06/03 10:42:24;;;;;;;13.27;8.43;;;24.80;69.50;;;;;;5100639;28;20028;-80
2021/06/03 10:44:51;;;;;;;10.95;7.95;;;25.00;69.60;;;;;;5094910;28;20111;-80
2021/06/03 10:47:17;;;;;;;10.40;7.75;;;25.00;69.00;;;;;;5106968;28;20252;-80
2021/06/03 10:49:44;;;;;;;7.20;6.50;;;25.10;71.10;;;;;;5111658;28;20111;-80
2021/06/03 10:52:12;;;;;;;7.82;6.78;;;25.40;69.10;;;;;;5095111;28;20047;-80
2021/06/03 10:54:48;;;;;;;9.43;5.00;;;25.40;66.70;;;;;;5093333;28;20024;-80
2021/06/03 10:57:16;;;;;;;6.10;5.50;;;25.60;64.50;;;;;;5095024;28;20035;-80
2021/06/03 10:59:43;;;;;;;6.45;5.85;;;25.60;63.40;;;;;;5093609;28;20025;-80
2021/06/03 11:02:11;;;;;;;6.00;4.88;;;25.60;64.00;;;;;;5107549;28;20399;-80
2021/06/03 11:04:40;;;;;;;5.35;4.75;;;25.60;63.30;;;;;;5094774;28;20016;-80
2021/06/03 11:07:07;;;;;;;6.38;3.92;;;25.70;63.60;;;;;;5094843;28;21027;-80
2021/06/03 11:09:40;;;;;;;4.55;4.15;;;25.70;62.70;;;;;;5094792;28;20031;-80
2021/06/03 11:12:22;;;;;;;5.55;3.45;;;25.90;60.30;;;;;;5094640;28;20039;-80
2021/06/03 11:15:08;;;;;;;;;;;25.90;60.40;;;;;;5095021;28;20016;-80
2021/06/03 11:17:54;;;;;;;3.80;3.50;;;25.90;59.70;;;;;;5093408;28;19907;-80
2021/06/03 11:20:52;;;;;;;4.55;4.18;;;25.90;61.20;;;;;;5093229;28;20020;-80
2021/06/03 11:23:42;;;;;;;6.07;4.70;;;26.00;61.50;;;;;;5060671;28;20048;-80
2021/06/03 11:26:09;;;;;;;5.45;4.20;;;26.00;61.80;;;;;;5096417;28;20441;-80
2021/06/03 11:28:35;;;;;;;3.42;3.22;;;26.00;60.40;;;;;;5114922;28;20023;-79
2021/06/03 11:31:20;;;;;;;3.47;3.00;;;26.10;61.60;;;;;;5113476;28;20528;-79
2021/06/03 11:34:07;;;;;;;4.15;3.85;;;26.20;58.90;;;;;;5097949;28;20462;-79
2021/06/03 11:36:34;;;;;;;7.13;3.22;;;26.30;61.00;;;;;;5094320;28;20025;-80
2021/06/03 11:39:00;;;;;;;4.60;4.25;;;26.50;58.90;;;;;;5093890;28;20027;-80
2021/06/03 11:41:39;;;;;;;7.70;3.85;;;26.60;58.80;;;;;;5094198;28;20024;-79
2021/06/03 11:44:10;;;;;;;4.72;4.15;;;26.60;59.80;;;;;;5093710;28;20028;-80
2021/06/03 11:46:48;;;;;;;;;;;26.70;60.00;;;;;;5097281;28;20055;-80
2021/06/03 11:49:40;;;;;;;4.00;3.70;;;26.80;57.30;;;;;;5093621;28;19983;-80
2021/06/03 11:52:10;;;;;;;6.53;5.72;;;27.00;59.00;;;;;;5084752;28;20054;-80
2021/06/03 11:54:55;;;;;;;4.78;4.38;;;26.80;58.30;;;;;;5095282;28;20066;-80
2021/06/03 11:57:23;;;;;;;6.28;4.60;;;27.00;58.40;;;;;;5092355;28;20032;-80
2021/06/03 11:59:59;;;;;;;5.28;4.78;;;27.10;59.70;;;;;;5093279;28;20505;-79
2021/06/03 12:02:34;;;;;;;5.60;4.60;;;27.30;59.40;;;;;;5092947;28;20545;-79
2021/06/03 12:05:18;;;;;;;4.85;4.50;;;27.40;61.10;;;;;;5091523;28;20475;-79
2021/06/03 12:07:54;;;;;;;5.55;4.95;;;27.60;57.30;;;;;;5092295;28;20092;-79
2021/06/03 12:10:40;;;;;;;6.00;5.50;;;27.60;57.30;;;;;;5085116;28;20015;-79
2021/06/03 12:13:16;;;;;;;12.20;7.15;;;27.60;58.10;;;;;;5091033;28;20093;-80
2021/06/03 12:15:42;;;;;;;9.48;8.10;;;27.80;59.80;;;;;;5102754;28;20074;-79
2021/06/03 12:18:08;;;;;;;10.05;8.45;;;27.90;59.80;;;;;;5091837;28;20052;-80
2021/06/03 12:20:34;;;;;;;6.45;5.75;;;28.00;58.40;;;;;;5093099;28;20513;-78
2021/06/03 12:23:08;;;;;;;9.02;7.22;;;28.10;57.50;;;;;;5092211;28;20035;-79
2021/06/03 12:25:42;;;;;;;9.70;8.45;;;28.10;56.80;;;;;;5092826;28;20107;-80
2021/06/03 12:28:09;;;;;;;8.98;6.93;;;28.20;56.20;;;;;;5112125;28;20107;-79
2021/06/03 12:30:40;;;;;;;6.22;5.72;;;28.20;56.70;;;;;;5092426;28;20089;-79
2021/06/03 12:33:10;;;;;;;14.07;10.60;;;28.40;56.50;;;;;;5092479;28;20020;-79
2021/06/03 12:35:54;;;;;;;12.10;7.20;;;28.50;56.70;;;;;;5107481;28;20030;-79
2021/06/03 12:38:33;;;;;;;9.48;6.68;;;28.50;56.00;;;;;;5095296;28;20051;-79
2021/06/03 12:41:21;;;;;;;8.63;7.70;;;28.60;54.00;;;;;;5093074;28;20031;-79
2021/06/03 12:43:51;;;;;;;12.65;9.23;;;28.70;55.90;;;;;;5092956;28;20026;-79
2021/06/03 12:46:17;;;;;;;9.77;7.80;;;28.80;54.50;;;;;;5095933;28;20019;-79
2021/06/03 12:48:43;;;;;;;9.70;8.32;;;28.90;53.70;;;;;;5113397;28;20382;-79
2021/06/03 12:51:12;;;;;;;8.75;7.85;;;28.90;55.10;;;;;;5113271;28;20053;-79
2021/06/03 12:53:39;;;;;;;9.07;7.68;;;29.00;53.50;;;;;;5113362;28;20427;-77
2021/06/03 12:56:23;;;;;;;8.15;6.90;;;29.00;52.00;;;;;;5094055;28;20028;-74
2021/06/03 12:58:52;;;;;;;7.18;5.72;;;29.10;52.60;;;;;;5092484;28;20020;-77
2021/06/03 13:01:18;;;;;;;6.88;6.18;;;29.20;51.90;;;;;;5104346;28;20028;-76
2021/06/03 13:03:59;;;;;;;10.13;8.00;;;29.30;51.30;;;;;;5097386;28;20663;-77
2021/06/03 13:06:26;;;;;;;9.68;8.23;;;29.40;51.30;;;;;;5080055;28;20116;-76